createdAt,value
2022-09-26T00:01:44.504Z,10.90
2022-09-26T00:04:22.350Z,10.90
2022-09-26T00:06:52.765Z,10.90
2022-09-26T00:09:21.430Z,10.90
2022-09-26T00:11:50.192Z,10.90
2022-09-26T00:14:21.360Z,10.90
2022-09-26T00:16:51.425Z,10.90
2022-09-26T00:19:20.176Z,10.80
2022-09-26T00:21:48.872Z,10.80
2022-09-26T00:24:17.622Z,10.90
2022-09-26T00:26:45.970Z,10.80
2022-09-26T00:29:14.617Z,10.90
2022-09-26T00:31:44.811Z,10.80
2022-09-26T00:36:58.272Z,10.80
2022-09-26T00:39:26.584Z,10.80
2022-09-26T00:41:54.999Z,10.90
2022-09-26T00:45:02.308Z,10.90
2022-09-26T00:47:43.282Z,10.90
2022-09-26T00:50:19.556Z,10.90
2022-09-26T00:52:52.370Z,11.00
2022-09-26T00:55:24.954Z,10.90
2022-09-26T00:57:59.362Z,10.90
2022-09-26T01:00:28.265Z,11.00
2022-09-26T01:02:56.991Z,11.00
2022-09-26T01:05:27.285Z,10.90
2022-09-26T01:07:57.316Z,10.90
2022-09-26T01:10:27.569Z,11.00
2022-09-26T01:12:57.898Z,10.90
2022-09-26T01:15:26.532Z,11.00
2022-09-26T01:17:54.982Z,11.00
2022-09-26T01:20:46.705Z,11.00
2022-09-26T01:23:49.722Z,11.00
2022-09-26T01:26:50.800Z,11.00
2022-09-26T01:30:02.311Z,11.00
2022-09-26T01:32:59.779Z,11.00
2022-09-26T01:35:43.625Z,11.00
2022-09-26T01:38:23.999Z,11.00
2022-09-26T01:41:05.221Z,11.00
2022-09-26T01:43:41.804Z,11.00
2022-09-26T01:46:21.050Z,11.10
2022-09-26T01:48:55.832Z,11.10
2022-09-26T01:51:31.025Z,11.10
2022-09-26T01:54:03.929Z,11.10
2022-09-26T01:56:37.935Z,11.10
2022-09-26T01:59:09.813Z,11.10
2022-09-26T02:01:43.821Z,11.00
2022-09-26T02:04:20.106Z,11.00
2022-09-26T02:06:52.855Z,11.10
2022-09-26T02:09:27.099Z,11.00
2022-09-26T02:12:02.995Z,11.10
2022-09-26T02:14:35.790Z,11.00
2022-09-26T02:17:09.864Z,11.10
2022-09-26T02:19:46.764Z,11.10
2022-09-26T02:22:16.583Z,11.10
2022-09-26T02:24:44.872Z,11.10
2022-09-26T02:27:14.796Z,11.10
2022-09-26T02:29:45.279Z,11.10
2022-09-26T02:32:19.031Z,11.10
2022-09-26T02:34:50.102Z,11.10
2022-09-26T02:37:21.857Z,11.10
2022-09-26T02:39:53.132Z,11.10
2022-09-26T02:42:36.437Z,11.10
2022-09-26T02:45:21.616Z,11.10
2022-09-26T02:48:17.932Z,11.20
2022-09-26T02:51:01.860Z,11.20
2022-09-26T02:53:54.704Z,11.20
2022-09-26T02:56:39.393Z,11.10
2022-09-26T02:59:19.081Z,11.10
2022-09-26T03:02:07.333Z,11.10
2022-09-26T03:04:44.085Z,11.10
2022-09-26T03:07:20.379Z,11.10
2022-09-26T03:09:52.318Z,11.10
2022-09-26T03:12:21.482Z,11.10
2022-09-26T03:14:55.408Z,11.10
2022-09-26T03:17:28.988Z,11.10
2022-09-26T03:20:05.649Z,11.10
2022-09-26T03:22:38.697Z,11.10
2022-09-26T03:25:10.215Z,11.10
2022-09-26T03:27:45.075Z,11.10
2022-09-26T03:30:15.952Z,11.10
2022-09-26T03:32:53.587Z,11.10
2022-09-26T03:35:22.019Z,11.00
2022-09-26T03:37:51.669Z,11.00
2022-09-26T03:40:20.312Z,10.90
2022-09-26T03:43:24.235Z,11.00
2022-09-26T03:45:55.012Z,11.00
2022-09-26T03:48:27.302Z,10.90
2022-09-26T03:50:56.015Z,11.00
2022-09-26T03:53:25.864Z,11.00
2022-09-26T03:55:54.298Z,11.00
2022-09-26T03:58:22.533Z,11.00
2022-09-26T04:00:51.439Z,11.00
2022-09-26T04:03:21.329Z,11.00
2022-09-26T04:05:49.710Z,11.00
2022-09-26T04:08:18.727Z,11.00
2022-09-26T04:10:48.305Z,11.00
2022-09-26T04:13:39.718Z,11.00
2022-09-26T04:16:06.824Z,11.00
2022-09-26T04:18:36.854Z,11.00
2022-09-26T04:21:11.166Z,11.00
2022-09-26T04:23:40.896Z,10.90
2022-09-26T04:26:12.578Z,11.00
2022-09-26T04:28:42.050Z,11.00
2022-09-26T04:31:12.191Z,11.00
2022-09-26T04:33:43.099Z,11.00
2022-09-26T04:36:13.443Z,11.00
2022-09-26T04:38:42.002Z,11.00
2022-09-26T04:41:16.229Z,10.90
2022-09-26T04:43:45.113Z,10.90
2022-09-26T04:46:20.802Z,11.00
2022-09-26T04:48:52.979Z,11.00
2022-09-26T04:51:25.836Z,11.00
2022-09-26T04:53:54.574Z,11.10
2022-09-26T04:56:29.008Z,11.10
2022-09-26T04:58:59.242Z,11.10
2022-09-26T05:01:35.354Z,11.10
2022-09-26T05:04:15.283Z,11.20
2022-09-26T05:06:45.353Z,11.20
2022-09-26T05:09:26.199Z,11.20
2022-09-26T05:12:08.202Z,11.20
2022-09-26T05:14:38.938Z,11.20
2022-09-26T05:17:27.717Z,11.20
2022-09-26T05:20:00.984Z,11.30
2022-09-26T05:22:52.865Z,11.30
2022-09-26T05:25:38.613Z,11.30
2022-09-26T05:28:08.260Z,11.30
2022-09-26T05:30:40.941Z,11.40
2022-09-26T05:33:12.575Z,11.40
2022-09-26T05:35:41.552Z,11.40
2022-09-26T05:38:09.897Z,11.40
2022-09-26T05:40:57.379Z,11.40
2022-09-26T05:43:30.773Z,11.40
2022-09-26T05:46:14.132Z,11.50
2022-09-26T05:48:53.499Z,11.50
2022-09-26T05:51:32.111Z,11.50
2022-09-26T05:54:11.708Z,11.50
2022-09-26T05:57:15.408Z,11.50
2022-09-26T06:00:03.588Z,11.60
2022-09-26T06:03:05.814Z,11.50
2022-09-26T06:06:28.305Z,11.60
2022-09-26T06:09:21.402Z,11.60
2022-09-26T06:12:31.441Z,11.60
2022-09-26T06:15:33.551Z,11.60
2022-09-26T06:18:32.974Z,11.70
2022-09-26T06:21:23.445Z,11.70
2022-09-26T06:24:17.511Z,11.70
2022-09-26T06:27:46.929Z,11.70
2022-09-26T06:30:37.215Z,11.80
2022-09-26T06:34:02.930Z,11.80
2022-09-26T06:57:04.419Z,12.00
2022-09-26T06:59:34.354Z,12.00
2022-09-26T07:02:12.007Z,12.10
2022-09-26T07:05:05.736Z,12.10
2022-09-26T07:07:58.477Z,12.20
2022-09-26T07:10:31.935Z,12.20
2022-09-26T07:13:09.405Z,12.20
2022-09-26T07:15:40.145Z,12.30
2022-09-26T07:21:22.749Z,12.40
2022-09-26T07:24:02.601Z,12.40
2022-09-26T07:26:31.307Z,12.40
2022-09-26T07:29:01.236Z,12.40
2022-09-26T07:31:31.076Z,12.50
2022-09-26T07:34:05.702Z,12.50
2022-09-26T07:36:34.873Z,12.60
2022-09-26T07:39:03.261Z,12.60
2022-09-26T07:41:31.593Z,12.70
2022-09-26T07:47:22.296Z,12.80
2022-09-26T07:50:08.634Z,12.90
2022-09-26T07:52:57.093Z,13.00
2022-09-26T07:55:27.979Z,13.20
2022-09-26T07:58:14.977Z,13.30
2022-09-26T08:01:06.789Z,13.30
2022-09-26T08:04:14.256Z,13.40
2022-09-26T08:06:42.950Z,13.40
2022-09-26T08:09:20.594Z,13.40
2022-09-26T08:12:07.646Z,13.50
2022-09-26T08:14:54.952Z,13.50
2022-09-26T08:17:38.184Z,13.50
2022-09-26T08:20:07.747Z,13.50
2022-09-26T08:22:36.205Z,13.50
2022-09-26T08:25:06.864Z,13.50
2022-09-26T08:28:05.126Z,13.50
2022-09-26T08:30:33.918Z,13.50
2022-09-26T08:33:07.992Z,13.50
2022-09-26T08:35:39.538Z,13.50
2022-09-26T08:38:36.439Z,13.50
2022-09-26T08:41:49.841Z,13.50
2022-09-26T08:45:00.013Z,13.50
2022-09-26T08:47:48.359Z,13.50
2022-09-26T08:50:33.245Z,13.60
2022-09-26T08:53:06.060Z,13.70
2022-09-26T08:55:48.000Z,13.70
2022-09-26T08:58:21.682Z,13.70
2022-09-26T09:01:02.966Z,13.70
2022-09-26T09:03:39.275Z,13.70
2022-09-26T09:06:14.593Z,13.80
2022-09-26T09:08:47.569Z,13.80
2022-09-26T09:12:01.005Z,13.80
2022-09-26T09:15:24.200Z,13.80
2022-09-26T09:18:21.516Z,13.80
2022-09-26T09:21:24.537Z,13.80
2022-09-26T09:24:19.372Z,13.80
2022-09-26T09:30:15.302Z,13.90
2022-09-26T09:33:00.393Z,14.10
2022-09-26T09:35:51.128Z,14.20
2022-09-26T09:38:49.919Z,14.30
2022-09-26T09:41:47.424Z,14.40
2022-09-26T09:44:28.730Z,14.50
2022-09-26T09:46:57.073Z,14.60
2022-09-26T09:49:26.203Z,14.70
2022-09-26T09:52:09.059Z,14.70
2022-09-26T09:54:47.875Z,14.70
2022-09-26T09:57:41.569Z,14.80
2022-09-26T10:00:17.757Z,14.80
2022-09-26T10:03:01.566Z,14.90
2022-09-26T10:05:39.259Z,14.90
2022-09-26T10:08:14.178Z,14.90
2022-09-26T10:11:42.319Z,15.00
2022-09-26T10:14:39.606Z,15.10
2022-09-26T10:17:22.665Z,15.20
2022-09-26T10:20:04.013Z,15.20
2022-09-26T10:22:56.175Z,15.30
2022-09-26T10:25:29.912Z,15.30
2022-09-26T10:28:01.237Z,15.40
2022-09-26T10:30:33.210Z,15.50
2022-09-26T10:33:06.145Z,15.60
2022-09-26T10:35:44.277Z,15.60
2022-09-26T10:38:22.506Z,15.60
2022-09-26T10:41:03.625Z,15.70
2022-09-26T10:43:38.542Z,15.60
2022-09-26T10:46:25.197Z,15.60
2022-09-26T10:49:15.641Z,15.60
2022-09-26T10:52:20.796Z,15.70
2022-09-26T10:54:55.537Z,15.70
2022-09-26T10:57:28.574Z,15.90
2022-09-26T11:00:06.558Z,16.00
2022-09-26T11:02:36.252Z,16.10
2022-09-26T11:05:25.398Z,16.30
2022-09-26T11:08:25.825Z,16.40
2022-09-26T11:11:17.587Z,16.50
2022-09-26T11:14:27.384Z,16.50
2022-09-26T11:17:03.797Z,16.50
2022-09-26T11:19:45.469Z,16.50
2022-09-26T11:22:22.187Z,16.50
2022-09-26T11:25:00.839Z,16.40
2022-09-26T11:30:26.236Z,16.30
2022-09-26T11:33:05.426Z,16.20
2022-09-26T11:36:11.009Z,16.20
2022-09-26T11:38:47.741Z,16.20
2022-09-26T11:41:42.039Z,16.20
2022-09-26T11:44:29.140Z,16.20
2022-09-26T11:48:06.981Z,16.30
2022-09-26T11:51:14.870Z,16.40
2022-09-26T11:53:58.332Z,16.50
2022-09-26T11:57:01.643Z,16.50
2022-09-26T11:59:50.295Z,16.50
2022-09-26T12:02:38.214Z,16.30
2022-09-26T12:05:27.163Z,16.10
2022-09-26T12:08:08.593Z,15.80
2022-09-26T12:10:43.807Z,15.60
2022-09-26T12:13:24.925Z,15.50
2022-09-26T12:15:58.872Z,15.40
2022-09-26T12:18:36.786Z,15.30
2022-09-26T12:24:12.438Z,15.20
2022-09-26T12:26:47.198Z,15.20
2022-09-26T12:29:29.325Z,15.30
2022-09-26T12:32:21.659Z,15.30
2022-09-26T12:35:16.132Z,15.20
2022-09-26T12:38:00.121Z,15.20
2022-09-26T12:40:36.546Z,15.30
2022-09-26T12:43:36.149Z,15.30
2022-09-26T12:46:24.445Z,15.40
2022-09-26T12:49:09.516Z,15.60
2022-09-26T12:51:43.923Z,15.70
2022-09-26T12:54:49.732Z,15.80
2022-09-26T12:57:30.834Z,16.00
2022-09-26T13:00:20.204Z,16.00
2022-09-26T13:03:27.756Z,16.20
2022-09-26T13:06:21.192Z,16.30
2022-09-26T13:09:00.849Z,16.50
2022-09-26T13:11:42.771Z,16.60
2022-09-26T13:14:30.785Z,16.60
2022-09-26T13:17:10.455Z,16.60
2022-09-26T13:19:44.563Z,16.80
2022-09-26T13:22:27.384Z,16.80
2022-09-26T13:25:02.017Z,16.80
2022-09-26T13:27:38.304Z,16.80
2022-09-26T13:30:16.891Z,16.60
2022-09-26T13:32:54.913Z,16.40
2022-09-26T13:35:25.272Z,16.30
2022-09-26T13:38:10.958Z,16.10
2022-09-26T13:40:45.356Z,16.00
2022-09-26T13:43:27.245Z,16.00
2022-09-26T13:46:03.686Z,16.10
2022-09-26T13:48:50.071Z,16.10
2022-09-26T13:51:22.341Z,16.20
2022-09-26T13:54:04.996Z,16.20
2022-09-26T13:56:55.961Z,16.30
2022-09-26T13:59:51.442Z,16.40
2022-09-26T14:02:24.933Z,16.40
2022-09-26T14:04:54.867Z,16.40
2022-09-26T14:08:04.804Z,16.40
2022-09-26T14:10:38.780Z,16.40
2022-09-26T14:13:20.489Z,16.30
2022-09-26T14:16:01.285Z,16.30
2022-09-26T14:18:53.302Z,16.30
2022-09-26T14:21:39.982Z,16.20
2022-09-26T14:24:31.717Z,16.30
2022-09-26T14:27:06.985Z,16.20
2022-09-26T14:29:49.064Z,16.20
2022-09-26T14:32:19.998Z,16.20
2022-09-26T14:34:56.013Z,16.20
2022-09-26T14:37:34.040Z,16.20
2022-09-26T14:40:25.958Z,16.20
2022-09-26T14:42:58.760Z,16.20
2022-09-26T14:45:45.511Z,16.10
2022-09-26T14:48:30.279Z,16.00
2022-09-26T14:51:04.036Z,16.00
2022-09-26T14:53:38.823Z,16.10
2022-09-26T14:56:11.123Z,16.00
2022-09-26T14:58:53.072Z,16.00
2022-09-26T15:01:26.823Z,15.90
2022-09-26T15:04:02.901Z,15.80
2022-09-26T15:06:41.723Z,15.70
2022-09-26T15:09:12.907Z,15.70
2022-09-26T15:11:44.716Z,15.80
2022-09-26T15:14:22.886Z,15.80
2022-09-26T15:16:54.376Z,15.80
2022-09-26T15:19:28.091Z,15.80
2022-09-26T15:22:01.760Z,15.80
2022-09-26T15:24:32.897Z,15.90
2022-09-26T15:27:08.248Z,15.90
2022-09-26T15:29:37.067Z,15.80
2022-09-26T15:32:07.152Z,15.80
2022-09-26T15:34:39.709Z,15.70
2022-09-26T15:37:18.842Z,15.60
2022-09-26T15:39:47.149Z,15.60
2022-09-26T15:42:46.495Z,15.50
2022-09-26T15:45:29.771Z,15.50
2022-09-26T15:47:59.525Z,15.50
2022-09-26T15:50:41.391Z,15.50
2022-09-26T15:53:21.633Z,15.40
2022-09-26T15:55:53.358Z,15.40
2022-09-26T15:58:26.228Z,15.30
2022-09-26T16:03:48.705Z,15.40
2022-09-26T16:06:28.259Z,15.40
2022-09-26T16:09:02.360Z,15.40
2022-09-26T16:11:32.869Z,15.40
2022-09-26T16:14:02.209Z,15.50
2022-09-26T16:16:35.548Z,15.50
2022-09-26T16:19:04.982Z,15.50
2022-09-26T16:21:36.553Z,15.50
2022-09-26T16:24:32.395Z,15.50
2022-09-26T16:27:01.705Z,15.40
2022-09-26T16:29:35.173Z,15.40
2022-09-26T16:32:05.282Z,15.40
2022-09-26T16:34:34.262Z,15.40
2022-09-26T16:37:04.681Z,15.30
2022-09-26T16:39:34.670Z,15.30
2022-09-26T16:42:05.954Z,15.30
2022-09-26T16:44:37.391Z,15.30
2022-09-26T16:47:36.767Z,15.20
2022-09-26T16:50:20.063Z,15.20
2022-09-26T16:52:48.635Z,15.20
2022-09-26T16:55:18.623Z,15.10
2022-09-26T16:57:53.318Z,15.10
2022-09-26T17:00:42.664Z,15.20
2022-09-26T17:03:22.897Z,15.20
2022-09-26T17:05:52.911Z,15.20
2022-09-26T17:08:22.008Z,15.20
2022-09-26T17:10:52.184Z,15.10
2022-09-26T17:13:23.719Z,15.10
2022-09-26T17:15:55.589Z,15.10
2022-09-26T17:18:29.286Z,15.10
2022-09-26T17:21:00.304Z,15.00
2022-09-26T17:23:43.462Z,15.00
2022-09-26T17:26:21.604Z,15.00
2022-09-26T17:28:52.937Z,15.00
2022-09-26T17:31:23.181Z,14.90
2022-09-26T17:33:55.619Z,14.90
2022-09-26T17:36:30.794Z,14.90
2022-09-26T17:39:02.864Z,14.80
2022-09-26T17:41:34.538Z,14.70
2022-09-26T17:44:03.500Z,14.70
2022-09-26T17:46:32.938Z,14.70
2022-09-26T17:49:12.534Z,14.60
2022-09-26T17:51:43.133Z,14.60
2022-09-26T17:54:42.634Z,14.50
2022-09-26T17:57:15.456Z,14.50
2022-09-26T17:59:43.909Z,14.40
2022-09-26T18:02:20.321Z,14.40
2022-09-26T18:04:50.868Z,14.40
2022-09-26T18:07:20.381Z,14.30
2022-09-26T18:09:53.802Z,14.30
2022-09-26T18:12:25.544Z,14.30
2022-09-26T18:15:04.744Z,14.30
2022-09-26T18:17:33.347Z,14.30
2022-09-26T18:20:02.539Z,14.20
2022-09-26T18:22:37.404Z,14.20
2022-09-26T18:25:09.563Z,14.20
2022-09-26T18:27:40.790Z,14.20
2022-09-26T18:30:14.918Z,14.20
2022-09-26T18:32:47.438Z,14.20
2022-09-26T18:35:17.219Z,14.20
2022-09-26T18:37:55.376Z,14.20
2022-09-26T18:40:25.791Z,14.20
2022-09-26T18:42:58.289Z,14.20
2022-09-26T18:45:29.815Z,14.10
2022-09-26T18:47:58.328Z,14.10
2022-09-26T18:50:34.236Z,14.10
2022-09-26T18:53:03.109Z,14.10
2022-09-26T18:55:56.604Z,14.10
2022-09-26T18:58:27.778Z,14.10
2022-09-26T19:03:48.251Z,14.10
2022-09-26T19:06:26.766Z,14.10
2022-09-26T19:08:59.577Z,14.10
2022-09-26T19:11:32.608Z,14.10
2022-09-26T19:14:12.556Z,14.10
2022-09-26T19:16:55.096Z,14.00
2022-09-26T19:19:24.886Z,14.00
2022-09-26T19:21:58.162Z,13.90
2022-09-26T19:25:07.611Z,13.90
2022-09-26T19:27:42.845Z,13.90
2022-09-26T19:30:17.722Z,13.90
2022-09-26T19:32:49.289Z,13.80
2022-09-26T19:35:24.144Z,13.80
2022-09-26T19:37:53.076Z,13.80
2022-09-26T19:40:23.151Z,13.80
2022-09-26T19:42:51.897Z,13.70
2022-09-26T19:45:23.033Z,13.80
2022-09-26T19:47:57.335Z,13.70
2022-09-26T19:50:27.317Z,13.70
2022-09-26T19:52:58.413Z,13.80
2022-09-26T19:55:29.328Z,13.70
2022-09-26T20:00:52.677Z,13.70
2022-09-26T20:03:22.501Z,13.70
2022-09-26T20:05:51.413Z,13.70
2022-09-26T20:08:22.150Z,13.70
2022-09-26T20:10:51.086Z,13.70
2022-09-26T20:13:20.488Z,13.70
2022-09-26T20:15:52.079Z,13.70
2022-09-26T20:18:23.549Z,13.70
2022-09-26T20:23:37.510Z,13.70
2022-09-26T20:26:12.970Z,13.70
2022-09-26T20:28:41.449Z,13.60
2022-09-26T20:31:21.583Z,13.60
2022-09-26T20:33:51.410Z,13.60
2022-09-26T20:36:26.734Z,13.60
2022-09-26T20:38:57.717Z,13.60
2022-09-26T20:41:32.998Z,13.50
2022-09-26T20:44:06.394Z,13.50
2022-09-26T20:46:40.177Z,13.50
2022-09-26T20:49:14.826Z,13.50
2022-09-26T20:51:47.535Z,13.50
2022-09-26T20:54:28.048Z,13.50
2022-09-26T20:56:58.149Z,13.40
2022-09-26T20:59:29.567Z,13.40
2022-09-26T21:02:01.577Z,13.40
2022-09-26T21:04:32.795Z,13.40
2022-09-26T21:07:01.362Z,13.40
2022-09-26T21:09:29.928Z,13.40
2022-09-26T21:12:19.391Z,13.40
2022-09-26T21:14:47.869Z,13.40
2022-09-26T21:17:20.854Z,13.40
2022-09-26T21:20:16.455Z,13.40
2022-09-26T21:23:05.066Z,13.40
2022-09-26T21:25:34.351Z,13.40
2022-09-26T21:28:07.600Z,13.40
2022-09-26T21:30:36.110Z,13.40
2022-09-26T21:33:05.782Z,13.40
2022-09-26T21:35:34.055Z,13.40
2022-09-26T21:38:02.481Z,13.50
2022-09-26T21:40:33.736Z,13.40
2022-09-26T21:43:08.538Z,13.40
2022-09-26T21:45:40.144Z,13.40
2022-09-26T21:48:10.033Z,13.40
2022-09-26T21:50:41.965Z,13.40
2022-09-26T21:53:13.766Z,13.40
2022-09-26T21:55:47.796Z,13.40
2022-09-26T21:58:19.265Z,13.40
2022-09-26T22:00:47.568Z,13.40
2022-09-26T22:03:17.566Z,13.40
2022-09-26T22:05:45.821Z,13.40
2022-09-26T22:08:14.103Z,13.40
2022-09-26T22:10:42.721Z,13.40
2022-09-26T22:13:10.984Z,13.40
2022-09-26T22:15:39.388Z,13.40
2022-09-26T22:18:07.776Z,13.30
2022-09-26T22:20:37.717Z,13.30
2022-09-26T22:23:06.636Z,13.30
2022-09-26T22:25:38.580Z,13.30
2022-09-26T22:28:09.175Z,13.30
2022-09-26T22:30:40.329Z,13.20
2022-09-26T22:33:08.677Z,13.20
2022-09-26T22:35:38.331Z,13.20
2022-09-26T22:38:06.635Z,13.20
2022-09-26T22:40:34.964Z,13.20
2022-09-26T22:43:03.281Z,13.10
2022-09-26T22:45:31.656Z,13.10
2022-09-26T22:47:59.992Z,13.10
2022-09-26T22:50:28.787Z,13.10
2022-09-26T22:53:00.987Z,13.00
2022-09-26T22:55:29.698Z,13.00
2022-09-26T22:57:58.771Z,13.00
2022-09-26T23:00:27.851Z,13.00
2022-09-26T23:02:56.935Z,13.00
2022-09-26T23:05:25.338Z,12.90
2022-09-26T23:07:54.632Z,12.90
2022-09-26T23:10:24.491Z,12.80
2022-09-26T23:12:52.832Z,12.80
2022-09-26T23:15:21.180Z,12.80
2022-09-26T23:17:49.435Z,12.70
2022-09-26T23:20:17.996Z,12.70
2022-09-26T23:22:46.282Z,12.60
2022-09-26T23:25:14.587Z,12.60
2022-09-26T23:27:44.222Z,12.60
2022-09-26T23:30:13.858Z,12.60
2022-09-26T23:33:02.524Z,12.60
2022-09-26T23:35:30.980Z,12.50
2022-09-26T23:37:59.294Z,12.50
2022-09-26T23:40:29.439Z,12.50
2022-09-26T23:42:59.473Z,12.50
2022-09-26T23:45:27.881Z,12.50
2022-09-26T23:47:56.154Z,12.50
2022-09-26T23:50:24.544Z,12.50
2022-09-26T23:52:53.461Z,12.50
2022-09-26T23:55:21.770Z,12.50
2022-09-26T23:57:50.076Z,12.50
